createdAt,value
2023-02-08T00:00:33.246Z,101280.94
2023-02-08T00:03:05.972Z,101254.22
2023-02-08T00:05:37.636Z,101253.41
2023-02-08T00:08:08.738Z,101235.88
2023-02-08T00:10:40.209Z,101238.31
2023-02-08T00:13:11.320Z,101226.69
2023-02-08T00:15:45.641Z,101218.34
2023-02-08T00:18:18.321Z,101219.47
2023-02-08T00:20:49.088Z,101223.72
2023-02-08T00:23:19.601Z,101224.00
2023-02-08T00:25:50.363Z,101228.78
2023-02-08T00:28:22.108Z,101231.81
2023-02-08T00:30:53.932Z,101238.56
2023-02-08T00:33:25.853Z,101240.81
2023-02-08T00:36:02.526Z,101250.31
2023-02-08T00:38:33.462Z,101237.84
2023-02-08T00:41:04.509Z,101256.50
2023-02-08T00:43:35.439Z,101247.34
2023-02-08T00:46:06.462Z,101248.47
2023-02-08T00:48:38.631Z,101255.19
2023-02-08T00:51:13.568Z,101252.38
2023-02-08T00:53:47.512Z,101248.75
2023-02-08T00:56:18.975Z,101255.19
2023-02-08T00:58:49.451Z,101247.16
2023-02-08T01:01:19.602Z,101245.16
2023-02-08T01:03:51.628Z,101239.94
2023-02-08T01:06:22.322Z,101223.22
2023-02-08T01:08:52.933Z,101241.56
2023-02-08T01:11:27.574Z,101232.06
2023-02-08T01:13:59.835Z,101226.47
2023-02-08T01:16:33.468Z,101249.28
2023-02-08T01:19:08.229Z,101250.13
2023-02-08T01:21:43.595Z,101260.94
2023-02-08T01:24:14.765Z,101270.94
2023-02-08T01:26:45.360Z,101269.81
2023-02-08T01:29:16.304Z,101279.81
2023-02-08T01:31:47.790Z,101306.53
2023-02-08T01:34:20.705Z,101289.84
2023-02-08T01:36:51.457Z,101310.47
2023-02-08T01:39:22.344Z,101299.63
2023-02-08T01:41:52.655Z,101311.88
2023-02-08T01:45:18.034Z,101309.75
2023-02-08T01:47:53.314Z,101310.34
2023-02-08T01:50:32.883Z,101311.50
2023-02-08T01:53:04.428Z,101328.53
2023-02-08T01:55:41.971Z,101322.44
2023-02-08T01:58:15.745Z,101322.75
2023-02-08T02:00:46.678Z,101330.59
2023-02-08T02:03:18.467Z,101328.63
2023-02-08T02:05:57.273Z,101325.34
2023-02-08T02:08:28.834Z,101334.00
2023-02-08T02:10:59.590Z,101314.81
2023-02-08T02:13:31.666Z,101324.63
2023-02-08T02:16:16.604Z,101346.66
2023-02-08T02:18:47.060Z,101340.91
2023-02-08T02:21:48.985Z,101297.81
2023-02-08T02:25:06.927Z,101320.69
2023-02-08T02:28:20.245Z,101326.03
2023-02-08T02:31:38.418Z,101330.59
2023-02-08T02:34:21.685Z,101342.03
2023-02-08T02:37:00.111Z,101331.72
2023-02-08T02:39:42.764Z,101337.31
2023-02-08T02:42:41.678Z,101336.16
2023-02-08T02:45:29.521Z,101338.94
2023-02-08T02:48:13.334Z,101335.31
2023-02-08T02:50:51.821Z,101327.81
2023-02-08T02:53:32.024Z,101339.44
2023-02-08T02:56:11.929Z,101341.94
2023-02-08T02:58:47.811Z,101338.03
2023-02-08T03:01:27.168Z,101339.69
2023-02-08T03:03:59.464Z,101342.47
2023-02-08T03:07:06.803Z,101341.09
2023-02-08T03:10:04.625Z,101361.41
2023-02-08T03:12:52.210Z,101358.94
2023-02-08T03:15:36.673Z,101382.03
2023-02-08T03:18:26.553Z,101398.44
2023-02-08T03:21:07.504Z,101417.09
2023-02-08T03:23:51.761Z,101412.66
2023-02-08T03:26:30.629Z,101404.31
2023-02-08T03:29:10.257Z,101401.53
2023-02-08T03:31:47.548Z,101416.56
2023-02-08T03:34:26.390Z,101419.34
2023-02-08T03:37:04.136Z,101422.13
2023-02-08T03:39:43.350Z,101427.72
2023-02-08T03:42:20.314Z,101433.28
2023-02-08T03:44:59.436Z,101432.47
2023-02-08T03:47:35.834Z,101432.47
2023-02-08T03:50:14.006Z,101424.13
2023-02-08T03:52:47.087Z,101435.25
2023-02-08T03:55:24.997Z,101447.19
2023-02-08T03:58:01.231Z,101445.22
2023-02-08T04:00:39.219Z,101429.69
2023-02-08T04:03:15.747Z,101441.63
2023-02-08T04:05:47.217Z,101443.59
2023-02-08T04:08:17.991Z,101451.94
2023-02-08T04:10:50.899Z,101444.72
2023-02-08T04:13:21.491Z,101446.66
2023-02-08T04:15:52.029Z,101443.88
2023-02-08T04:18:22.239Z,101455.34
2023-02-08T04:20:52.333Z,101450.59
2023-02-08T04:23:22.896Z,101463.38
2023-02-08T04:25:55.581Z,101458.66
2023-02-08T04:28:26.848Z,101465.34
2023-02-08T04:30:59.326Z,101448.31
2023-02-08T04:33:29.764Z,101454.72
2023-02-08T04:36:00.305Z,101448.00
2023-02-08T04:38:31.721Z,101460.78
2023-02-08T04:41:03.802Z,101454.09
2023-02-08T04:43:34.428Z,101458.22
2023-02-08T04:46:05.033Z,101458.75
2023-02-08T04:48:35.260Z,101458.47
2023-02-08T04:51:05.794Z,101475.97
2023-02-08T04:53:36.531Z,101459.59
2023-02-08T04:56:09.703Z,101477.94
2023-02-08T04:58:40.780Z,101485.19
2023-02-08T05:01:12.869Z,101491.56
2023-02-08T05:03:44.140Z,101483.22
2023-02-08T05:06:14.557Z,101494.03
2023-02-08T05:08:44.621Z,101492.09
2023-02-08T05:11:22.917Z,101494.56
2023-02-08T05:13:54.448Z,101500.97
2023-02-08T05:16:25.010Z,101507.03
2023-02-08T05:18:55.739Z,101511.47
2023-02-08T05:21:26.365Z,101519.53
2023-02-08T05:23:57.089Z,101505.31
2023-02-08T05:26:29.006Z,101509.75
2023-02-08T05:29:00.711Z,101512.22
2023-02-08T05:31:35.123Z,101521.09
2023-02-08T05:34:05.746Z,101524.41
2023-02-08T05:36:37.022Z,101521.31
2023-02-08T05:39:07.580Z,101528.22
2023-02-08T05:41:40.031Z,101527.59
2023-02-08T05:44:10.484Z,101530.06
2023-02-08T05:46:40.970Z,101529.78
2023-02-08T05:49:11.075Z,101539.50
2023-02-08T05:51:41.629Z,101540.00
2023-02-08T05:54:11.540Z,101542.19
2023-02-08T05:56:44.035Z,101551.94
2023-02-08T05:59:14.527Z,101556.88
2023-02-08T06:01:45.053Z,101558.22
2023-02-08T06:04:15.654Z,101566.28
2023-02-08T06:06:46.416Z,101554.00
2023-02-08T06:09:16.943Z,101565.66
2023-02-08T06:11:49.465Z,101568.13
2023-02-08T06:14:20.018Z,101567.81
2023-02-08T06:16:50.563Z,101573.91
2023-02-08T06:19:21.779Z,101562.78
2023-02-08T06:21:51.846Z,101574.44
2023-02-08T06:24:22.535Z,101598.41
2023-02-08T06:26:54.485Z,101596.41
2023-02-08T06:29:25.317Z,101599.22
2023-02-08T06:31:55.848Z,101600.88
2023-02-08T06:34:26.202Z,101593.34
2023-02-08T06:36:57.656Z,101593.34
2023-02-08T06:39:29.029Z,101603.38
2023-02-08T06:42:01.744Z,101601.91
2023-02-08T06:44:32.640Z,101606.03
2023-02-08T06:47:02.831Z,101614.09
2023-02-08T06:49:34.084Z,101619.38
2023-02-08T06:52:04.507Z,101624.63
2023-02-08T06:54:34.568Z,101619.91
2023-02-08T06:57:08.848Z,101626.81
2023-02-08T06:59:38.907Z,101616.47
2023-02-08T07:02:13.186Z,101618.97
2023-02-08T07:04:43.513Z,101628.16
2023-02-08T07:07:15.496Z,101630.63
2023-02-08T07:09:46.061Z,101635.38
2023-02-08T07:12:19.568Z,101620.63
2023-02-08T07:14:50.188Z,101627.34
2023-02-08T07:17:20.775Z,101621.25
2023-02-08T07:19:51.504Z,101618.75
2023-02-08T07:22:22.156Z,101622.38
2023-02-08T07:24:52.233Z,101632.69
2023-02-08T07:27:26.036Z,101621.53
2023-02-08T07:29:55.937Z,101609.25
2023-02-08T07:32:26.130Z,101615.34
2023-02-08T07:34:56.228Z,101604.19
2023-02-08T07:37:26.349Z,101616.19
2023-02-08T07:39:56.919Z,101631.78
2023-02-08T07:42:29.671Z,101620.63
2023-02-08T07:44:59.694Z,101629.81
2023-02-08T07:47:30.020Z,101629.50
2023-02-08T07:50:00.720Z,101624.75
2023-02-08T07:52:31.759Z,101625.28
2023-02-08T07:55:02.370Z,101635.28
2023-02-08T07:57:34.467Z,101630.22
2023-02-08T08:00:05.520Z,101626.31
2023-02-08T08:02:36.114Z,101633.22
2023-02-08T08:05:07.179Z,101626.50
2023-02-08T08:07:38.482Z,101627.38
2023-02-08T08:10:10.320Z,101633.16
2023-02-08T08:12:42.753Z,101632.81
2023-02-08T08:15:14.815Z,101647.63
2023-02-08T08:17:45.440Z,101648.44
2023-02-08T08:20:15.628Z,101652.88
2023-02-08T08:22:45.955Z,101647.28
2023-02-08T08:25:16.907Z,101652.56
2023-02-08T08:27:48.750Z,101654.53
2023-02-08T08:30:22.476Z,101658.97
2023-02-08T08:32:52.990Z,101660.63
2023-02-08T08:35:23.452Z,101650.00
2023-02-08T08:37:53.658Z,101637.06
2023-02-08T08:40:25.162Z,101646.78
2023-02-08T08:42:57.767Z,101655.38
2023-02-08T08:45:28.368Z,101659.50
2023-02-08T08:47:58.832Z,101655.59
2023-02-08T08:50:29.632Z,101654.13
2023-02-08T08:53:00.150Z,101652.69
2023-02-08T08:55:30.853Z,101656.00
2023-02-08T08:58:03.520Z,101656.53
2023-02-08T09:00:33.602Z,101659.03
2023-02-08T09:03:04.224Z,101660.69
2023-02-08T09:05:34.961Z,101651.19
2023-02-08T09:08:05.782Z,101646.13
2023-02-08T09:10:36.184Z,101651.38
2023-02-08T09:13:08.826Z,101649.94
2023-02-08T09:15:42.768Z,101646.84
2023-02-08T09:18:13.301Z,101649.31
2023-02-08T09:20:44.171Z,101640.63
2023-02-08T09:23:15.532Z,101652.81
2023-02-08T09:25:46.071Z,101655.28
2023-02-08T09:28:18.761Z,101650.25
2023-02-08T09:30:52.200Z,101659.13
2023-02-08T09:33:22.681Z,101662.13
2023-02-08T09:35:52.973Z,101648.69
2023-02-08T09:38:23.753Z,101652.81
2023-02-08T09:41:09.883Z,101655.00
2023-02-08T09:43:56.961Z,101646.28
2023-02-08T09:46:36.480Z,101649.59
2023-02-08T09:49:16.504Z,101651.25
2023-02-08T09:51:56.354Z,101641.44
2023-02-08T09:54:36.155Z,101641.09
2023-02-08T09:57:14.468Z,101647.22
2023-02-08T09:59:55.789Z,101638.53
2023-02-08T10:02:30.845Z,101627.56
2023-02-08T10:05:07.060Z,101630.22
2023-02-08T10:07:39.675Z,101622.91
2023-02-08T10:10:16.678Z,101625.03
2023-02-08T10:13:00.355Z,101615.22
2023-02-08T10:15:49.599Z,101608.69
2023-02-08T10:18:45.160Z,101604.94
2023-02-08T10:21:40.920Z,101617.13
2023-02-08T10:24:44.617Z,101605.00
2023-02-08T10:27:19.065Z,101624.81
2023-02-08T10:30:30.391Z,101602.94
2023-02-08T10:33:09.889Z,101602.66
2023-02-08T10:35:47.163Z,101599.53
2023-02-08T10:38:44.121Z,101603.97
2023-02-08T10:41:24.086Z,101598.72
2023-02-08T10:44:04.397Z,101603.16
2023-02-08T10:46:43.749Z,101590.00
2023-02-08T10:49:26.017Z,101584.44
2023-02-08T10:51:56.755Z,101574.06
2023-02-08T10:54:27.866Z,101580.50
2023-02-08T10:57:03.679Z,101591.34
2023-02-08T10:59:43.575Z,101601.03
2023-02-08T11:02:27.162Z,101613.06
2023-02-08T11:05:06.529Z,101611.94
2023-02-08T11:07:38.083Z,101612.75
2023-02-08T11:10:26.387Z,101615.53
2023-02-08T11:13:04.257Z,101629.00
2023-02-08T11:15:43.093Z,101627.03
2023-02-08T11:18:26.013Z,101634.56
2023-02-08T11:21:02.972Z,101636.03
2023-02-08T11:23:36.735Z,101622.41
2023-02-08T11:26:21.586Z,101620.75
2023-02-08T11:29:06.431Z,101618.28
2023-02-08T11:31:37.546Z,101621.06
2023-02-08T11:34:12.139Z,101627.47
2023-02-08T11:36:48.973Z,101643.09
2023-02-08T11:39:25.525Z,101649.50
2023-02-08T11:42:01.070Z,101642.78
2023-02-08T11:44:35.586Z,101640.81
2023-02-08T11:47:10.372Z,101643.28
2023-02-08T11:49:44.456Z,101632.94
2023-02-08T11:52:28.101Z,101639.34
2023-02-08T11:55:16.291Z,101635.75
2023-02-08T11:57:56.499Z,101634.91
2023-02-08T12:00:30.095Z,101627.38
2023-02-08T12:03:04.657Z,101636.88
2023-02-08T12:05:47.409Z,101629.31
2023-02-08T12:08:34.394Z,101630.44
2023-02-08T12:11:23.966Z,101628.50
2023-02-08T12:14:29.253Z,101626.84
2023-02-08T12:17:26.550Z,101628.78
2023-02-08T12:20:34.813Z,101633.91
2023-02-08T12:23:45.991Z,101642.28
2023-02-08T12:26:55.196Z,101642.91
2023-02-08T12:29:48.083Z,101635.66
2023-02-08T12:33:03.252Z,101634.00
2023-02-08T12:36:10.899Z,101644.66
2023-02-08T12:39:26.029Z,101658.63
2023-02-08T12:42:34.043Z,101662.03
2023-02-08T12:45:32.356Z,101664.00
2023-02-08T12:48:19.169Z,101666.28
2023-02-08T12:50:58.858Z,101657.59
2023-02-08T12:53:36.270Z,101664.00
2023-02-08T12:56:16.790Z,101656.47
2023-02-08T12:58:59.159Z,101642.16
2023-02-08T13:01:39.615Z,101641.31
2023-02-08T13:04:16.496Z,101656.13
2023-02-08T13:06:52.372Z,101674.59
2023-02-08T13:09:38.712Z,101656.97
2023-02-08T13:12:18.703Z,101659.47
2023-02-08T13:14:56.593Z,101661.72
2023-02-08T13:17:32.573Z,101673.72
2023-02-08T13:20:13.864Z,101666.19
2023-02-08T13:22:45.610Z,101665.34
2023-02-08T13:25:26.750Z,101679.84
2023-02-08T13:27:58.107Z,101676.53
2023-02-08T13:30:30.791Z,101669.81
2023-02-08T13:33:06.469Z,101677.38
2023-02-08T13:35:38.362Z,101666.47
2023-02-08T13:38:23.474Z,101662.84
2023-02-08T13:41:08.811Z,101662.03
2023-02-08T13:43:46.034Z,101672.38
2023-02-08T13:46:19.247Z,101669.56
2023-02-08T13:48:53.051Z,101671.25
2023-02-08T13:51:57.035Z,101675.16
2023-02-08T13:54:27.557Z,101669.91
2023-02-08T13:56:58.310Z,101675.16
2023-02-08T13:59:42.377Z,101672.69
2023-02-08T14:02:32.929Z,101676.63
2023-02-08T14:05:52.423Z,101686.47
2023-02-08T14:08:33.323Z,101688.41
2023-02-08T14:11:18.988Z,101694.00
2023-02-08T14:13:57.916Z,101700.72
2023-02-08T14:16:36.167Z,101699.06
2023-02-08T14:19:25.682Z,101691.03
2023-02-08T14:22:06.537Z,101698.59
2023-02-08T14:24:44.248Z,101696.94
2023-02-08T14:27:25.660Z,101705.31
2023-02-08T14:30:04.137Z,101704.47
2023-02-08T14:32:40.628Z,101711.19
2023-02-08T14:35:26.035Z,101714.31
2023-02-08T14:38:51.732Z,101708.19
2023-02-08T14:42:06.653Z,101708.81
2023-02-08T14:45:06.333Z,101703.56
2023-02-08T14:48:21.697Z,101708.13
2023-02-08T14:51:20.557Z,101706.47
2023-02-08T14:53:55.487Z,101716.78
2023-02-08T14:56:32.310Z,101723.22
2023-02-08T14:59:10.138Z,101715.13
2023-02-08T15:01:48.719Z,101729.09
2023-02-08T15:04:20.058Z,101738.59
2023-02-08T15:07:34.413Z,101738.41
2023-02-08T15:10:07.729Z,101744.31
2023-02-08T15:12:42.861Z,101760.53
2023-02-08T15:15:29.458Z,101763.66
2023-02-08T15:18:02.055Z,101765.91
2023-02-08T15:20:35.800Z,101762.59
2023-02-08T15:23:21.889Z,101758.47
2023-02-08T15:26:00.853Z,101764.97
2023-02-08T15:28:34.707Z,101771.19
2023-02-08T15:31:10.120Z,101779.34
2023-02-08T15:33:44.315Z,101779.13
2023-02-08T15:36:22.993Z,101785.31
2023-02-08T15:39:04.929Z,101789.56
2023-02-08T15:41:36.345Z,101797.41
2023-02-08T15:44:28.900Z,101792.44
2023-02-08T15:47:03.283Z,101789.44
2023-02-08T15:49:38.485Z,101796.16
2023-02-08T15:52:11.437Z,101804.03
2023-02-08T15:54:45.642Z,101806.28
2023-02-08T15:57:38.206Z,101814.94
2023-02-08T16:00:17.568Z,101812.47
2023-02-08T16:02:56.476Z,101815.53
2023-02-08T16:05:30.272Z,101823.06
2023-02-08T16:08:02.928Z,101826.97
2023-02-08T16:10:42.473Z,101824.50
2023-02-08T16:13:26.108Z,101826.78
2023-02-08T16:16:08.400Z,101823.44
2023-02-08T16:18:46.646Z,101830.19
2023-02-08T16:21:38.758Z,101830.78
2023-02-08T16:24:23.535Z,101831.09
2023-02-08T16:27:03.882Z,101832.50
2023-02-08T16:29:37.724Z,101824.78
2023-02-08T16:32:13.748Z,101832.09
2023-02-08T16:34:45.163Z,101834.34
2023-02-08T16:37:28.877Z,101833.00
2023-02-08T16:40:01.291Z,101840.81
2023-02-08T16:42:40.298Z,101847.84
2023-02-08T16:45:24.834Z,101833.69
2023-02-08T16:48:04.192Z,101828.41
2023-02-08T16:50:44.361Z,101836.25
2023-02-08T16:53:16.305Z,101840.44
2023-02-08T16:55:47.116Z,101836.00
2023-02-08T16:58:19.189Z,101837.44
2023-02-08T17:00:49.851Z,101845.59
2023-02-08T17:03:20.565Z,101855.41
2023-02-08T17:05:51.216Z,101855.44
2023-02-08T17:08:24.099Z,101857.47
2023-02-08T17:10:59.281Z,101854.78
2023-02-08T17:13:31.928Z,101856.00
2023-02-08T17:16:02.562Z,101858.84
2023-02-08T17:18:34.971Z,101852.19
2023-02-08T17:21:05.502Z,101849.19
2023-02-08T17:23:35.578Z,101856.16
2023-02-08T17:26:06.072Z,101857.28
2023-02-08T17:28:39.606Z,101863.97
2023-02-08T17:31:11.847Z,101864.28
2023-02-08T17:33:42.445Z,101867.88
2023-02-08T17:36:15.526Z,101869.84
2023-02-08T17:38:47.607Z,101870.97
2023-02-08T17:41:20.099Z,101872.63
2023-02-08T17:43:55.427Z,101875.44
2023-02-08T17:46:29.182Z,101878.22
2023-02-08T17:49:02.177Z,101878.22
2023-02-08T17:51:33.331Z,101886.56
2023-02-08T17:54:06.913Z,101889.34
2023-02-08T17:56:37.314Z,101898.84
2023-02-08T17:59:10.931Z,101914.72
2023-02-08T18:01:41.703Z,101907.50
2023-02-08T18:04:13.810Z,101903.31
2023-02-08T18:06:44.621Z,101901.97
2023-02-08T18:09:15.474Z,101911.75
2023-02-08T18:11:46.503Z,101929.59
2023-02-08T18:14:18.760Z,101921.53
2023-02-08T18:16:49.743Z,101922.66
2023-02-08T18:19:20.262Z,101912.66
2023-02-08T18:21:51.118Z,101908.19
2023-02-08T18:24:22.517Z,101908.19
2023-02-08T18:26:53.189Z,101910.44
2023-02-08T18:29:26.189Z,101911.56
2023-02-08T18:31:57.600Z,101918.25
2023-02-08T18:34:28.284Z,101916.09
2023-02-08T18:36:59.053Z,101902.44
2023-02-08T18:39:29.625Z,101888.00
2023-02-08T18:42:00.866Z,101889.41
2023-02-08T18:44:35.697Z,101896.41
2023-02-08T18:47:05.760Z,101908.66
2023-02-08T18:49:41.030Z,101902.28
2023-02-08T18:52:13.980Z,101889.75
2023-02-08T18:54:44.821Z,101887.28
2023-02-08T18:57:14.896Z,101899.53
2023-02-08T18:59:47.258Z,101886.75
2023-02-08T19:02:23.554Z,101900.66
2023-02-08T19:04:53.986Z,101905.72
2023-02-08T19:07:24.659Z,101909.63
2023-02-08T19:09:55.669Z,101909.91
2023-02-08T19:12:25.806Z,101913.81
2023-02-08T19:14:58.342Z,101911.31
2023-02-08T19:17:28.954Z,101914.69
2023-02-08T19:19:59.383Z,101914.19
2023-02-08T19:22:30.038Z,101908.88
2023-02-08T19:25:00.635Z,101906.41
2023-02-08T19:27:31.357Z,101919.19
2023-02-08T19:30:03.894Z,101912.25
2023-02-08T19:32:34.613Z,101906.69
2023-02-08T19:35:05.395Z,101919.78
2023-02-08T19:37:36.060Z,101924.53
2023-02-08T19:40:07.761Z,101932.03
2023-02-08T19:42:37.742Z,101946.53
2023-02-08T19:45:12.383Z,101943.50
2023-02-08T19:47:51.342Z,101939.34
2023-02-08T19:50:22.499Z,101928.78
2023-02-08T19:52:53.025Z,101907.97
2023-02-08T19:55:24.348Z,101899.91
2023-02-08T19:57:54.468Z,101908.84
2023-02-08T20:00:26.864Z,101903.28
2023-02-08T20:02:57.382Z,101901.59
2023-02-08T20:05:27.970Z,101898.28
2023-02-08T20:07:58.500Z,101900.25
2023-02-08T20:10:29.633Z,101898.59
2023-02-08T20:12:59.795Z,101899.72
2023-02-08T20:15:32.425Z,101890.81
2023-02-08T20:18:03.427Z,101886.38
2023-02-08T20:20:34.636Z,101889.41
2023-02-08T20:23:14.058Z,101886.09
2023-02-08T20:25:47.993Z,101892.25
2023-02-08T20:28:19.299Z,101891.41
2023-02-08T20:30:51.508Z,101891.72
2023-02-08T20:33:21.989Z,101891.19
2023-02-08T20:35:52.061Z,101891.19
2023-02-08T20:38:22.674Z,101898.69
2023-02-08T20:40:53.502Z,101905.09
2023-02-08T20:43:23.993Z,101922.59
2023-02-08T20:45:57.023Z,101936.22
2023-02-08T20:48:28.070Z,101941.78
2023-02-08T20:50:58.605Z,101952.06
2023-02-08T20:53:29.306Z,101953.19
2023-02-08T20:56:00.876Z,101957.94
2023-02-08T20:58:31.418Z,101964.63
2023-02-08T21:01:04.250Z,101952.66
2023-02-08T21:03:34.771Z,101945.44
2023-02-08T21:06:14.240Z,101935.13
2023-02-08T21:08:44.691Z,101927.91
2023-02-08T21:11:15.824Z,101917.91
2023-02-08T21:13:46.475Z,101910.41
2023-02-08T21:16:20.263Z,101910.69
2023-02-08T21:18:51.981Z,101903.75
2023-02-08T21:21:23.008Z,101903.19
2023-02-08T21:23:54.667Z,101903.81
2023-02-08T21:26:25.774Z,101898.00
2023-02-08T21:28:59.155Z,101911.34
2023-02-08T21:31:31.586Z,101906.91
2023-02-08T21:34:04.082Z,101919.97
2023-02-08T21:36:34.983Z,101918.34
2023-02-08T21:39:05.723Z,101913.59
2023-02-08T21:41:37.118Z,101919.97
2023-02-08T21:44:08.713Z,101919.16
2023-02-08T21:46:41.230Z,101906.06
2023-02-08T21:49:29.625Z,101901.66
2023-02-08T21:52:17.191Z,101909.44
2023-02-08T21:54:53.773Z,101908.59
2023-02-08T21:57:27.395Z,101908.59
2023-02-08T22:00:01.775Z,101892.75
2023-02-08T22:02:34.825Z,101892.47
2023-02-08T22:05:05.841Z,101895.25
2023-02-08T22:07:45.993Z,101901.66
2023-02-08T22:10:20.564Z,101903.56
2023-02-08T22:12:53.037Z,101899.69
2023-02-08T22:15:25.178Z,101906.38
2023-02-08T22:18:01.040Z,101902.75
2023-02-08T22:20:32.996Z,101899.13
2023-02-08T22:23:04.518Z,101896.34
2023-02-08T22:25:35.393Z,101902.75
2023-02-08T22:28:07.022Z,101899.69
2023-02-08T22:30:38.262Z,101895.25
2023-02-08T22:33:10.969Z,101894.44
2023-02-08T22:35:42.992Z,101894.13
2023-02-08T22:38:13.508Z,101893.00
2023-02-08T22:40:44.593Z,101893.81
2023-02-08T22:43:15.360Z,101887.16
2023-02-08T22:45:45.995Z,101881.56
2023-02-08T22:48:18.622Z,101888.00
2023-02-08T22:50:49.246Z,101884.09
2023-02-08T22:53:19.962Z,101889.66
2023-02-08T22:55:53.315Z,101879.34
2023-02-08T22:58:24.620Z,101881.31
2023-02-08T23:00:55.189Z,101873.78
2023-02-08T23:03:27.825Z,101872.97
2023-02-08T23:05:58.395Z,101880.19
2023-02-08T23:08:29.045Z,101881.00
2023-02-08T23:11:03.505Z,101878.22
2023-02-08T23:13:35.401Z,101877.69
2023-02-08T23:16:05.846Z,101877.97
2023-02-08T23:18:41.031Z,101869.09
2023-02-08T23:21:14.918Z,101874.72
2023-02-08T23:23:46.150Z,101876.09
2023-02-08T23:26:22.400Z,101874.75
2023-02-08T23:28:54.977Z,101877.81
2023-02-08T23:31:25.401Z,101874.78
2023-02-08T23:33:57.678Z,101880.34
2023-02-08T23:36:27.672Z,101883.41
2023-02-08T23:38:57.691Z,101877.28
2023-02-08T23:41:27.825Z,101883.16
2023-02-08T23:43:58.531Z,101871.47
2023-02-08T23:46:31.183Z,101879.00
2023-02-08T23:49:04.414Z,101880.13
2023-02-08T23:51:35.288Z,101877.66
2023-02-08T23:54:05.900Z,101880.44
2023-02-08T23:56:36.448Z,101884.03
2023-02-08T23:59:08.739Z,101887.63
